sensor_id;sensor_type;location;lat;lon;timestamp;temperature;humidity
68189;DHT22;55008;47.514;19.218;2022-10-17T00:02:11;8.55;93.98
68189;DHT22;55008;47.514;19.218;2022-10-17T00:04:39;8.57;94.88
68189;DHT22;55008;47.514;19.218;2022-10-17T00:07:08;8.51;94.06
68189;DHT22;55008;47.514;19.218;2022-10-17T00:09:37;8.50;93.94
68189;DHT22;55008;47.514;19.218;2022-10-17T00:12:05;8.45;93.90
68189;DHT22;55008;47.514;19.218;2022-10-17T00:14:35;8.44;94.14
68189;DHT22;55008;47.514;19.218;2022-10-17T00:17:04;8.42;94.19
68189;DHT22;55008;47.514;19.218;2022-10-17T00:19:32;8.44;94.32
68189;DHT22;55008;47.514;19.218;2022-10-17T00:22:00;8.44;94.62
68189;DHT22;55008;47.514;19.218;2022-10-17T00:24:31;8.41;94.60
68189;DHT22;55008;47.514;19.218;2022-10-17T00:27:04;8.37;94.71
68189;DHT22;55008;47.514;19.218;2022-10-17T00:29:35;8.40;94.82
68189;DHT22;55008;47.514;19.218;2022-10-17T00:32:04;8.40;94.81
68189;DHT22;55008;47.514;19.218;2022-10-17T00:34:33;8.41;94.67
68189;DHT22;55008;47.514;19.218;2022-10-17T00:37:01;8.44;94.65
68189;DHT22;55008;47.514;19.218;2022-10-17T00:39:30;8.41;94.76
68189;DHT22;55008;47.514;19.218;2022-10-17T00:41:58;8.37;94.95
68189;DHT22;55008;47.514;19.218;2022-10-17T00:45:02;8.36;94.58
68189;DHT22;55008;47.514;19.218;2022-10-17T00:47:34;8.30;94.80
68189;DHT22;55008;47.514;19.218;2022-10-17T00:50:04;8.27;94.91
68189;DHT22;55008;47.514;19.218;2022-10-17T00:52:33;8.26;94.92
68189;DHT22;55008;47.514;19.218;2022-10-17T00:55:07;8.30;94.86
68189;DHT22;55008;47.514;19.218;2022-10-17T00:57:42;8.30;94.82
68189;DHT22;55008;47.514;19.218;2022-10-17T01:00:16;8.29;94.73
68189;DHT22;55008;47.514;19.218;2022-10-17T01:02:47;8.29;94.76
68189;DHT22;55008;47.514;19.218;2022-10-17T01:05:16;8.34;94.77
68189;DHT22;55008;47.514;19.218;2022-10-17T01:07:46;8.34;94.72
68189;DHT22;55008;47.514;19.218;2022-10-17T01:10:16;8.38;94.65
68189;DHT22;55008;47.514;19.218;2022-10-17T01:12:56;8.40;94.60
68189;DHT22;55008;47.514;19.218;2022-10-17T01:15:37;8.42;94.48
68189;DHT22;55008;47.514;19.218;2022-10-17T01:18:18;8.37;94.41
68189;DHT22;55008;47.514;19.218;2022-10-17T01:21:10;8.34;94.58
68189;DHT22;55008;47.514;19.218;2022-10-17T01:23:57;8.37;94.50
68189;DHT22;55008;47.514;19.218;2022-10-17T01:26:58;8.37;94.10
68189;DHT22;55008;47.514;19.218;2022-10-17T01:29:51;8.38;94.32
68189;DHT22;55008;47.514;19.218;2022-10-17T01:32:29;8.40;94.21
68189;DHT22;55008;47.514;19.218;2022-10-17T01:35:08;8.40;94.09
68189;DHT22;55008;47.514;19.218;2022-10-17T01:37:44;8.37;94.25
68189;DHT22;55008;47.514;19.218;2022-10-17T01:40:17;8.38;94.25
68189;DHT22;55008;47.514;19.218;2022-10-17T01:42:54;8.41;94.15
68189;DHT22;55008;47.514;19.218;2022-10-17T01:45:28;8.42;94.11
68189;DHT22;55008;47.514;19.218;2022-10-17T01:48:04;8.44;93.91
68189;DHT22;55008;47.514;19.218;2022-10-17T01:50:40;8.42;94.05
68189;DHT22;55008;47.514;19.218;2022-10-17T01:53:17;8.50;93.63
68189;DHT22;55008;47.514;19.218;2022-10-17T01:55:48;8.57;93.48
68189;DHT22;55008;47.514;19.218;2022-10-17T01:58:21;8.59;93.32
68189;DHT22;55008;47.514;19.218;2022-10-17T02:00:51;8.58;93.25
68189;DHT22;55008;47.514;19.218;2022-10-17T02:03:24;8.61;93.19
68189;DHT22;55008;47.514;19.218;2022-10-17T02:05:54;8.67;92.99
68189;DHT22;55008;47.514;19.218;2022-10-17T02:08:26;8.65;92.91
68189;DHT22;55008;47.514;19.218;2022-10-17T02:10:58;8.72;92.60
68189;DHT22;55008;47.514;19.218;2022-10-17T02:13:36;8.71;92.42
68189;DHT22;55008;47.514;19.218;2022-10-17T02:16:17;8.62;92.57
68189;DHT22;55008;47.514;19.218;2022-10-17T02:19:10;8.59;92.75
68189;DHT22;55008;47.514;19.218;2022-10-17T02:21:45;8.61;92.68
68189;DHT22;55008;47.514;19.218;2022-10-17T02:24:20;8.57;92.70
68189;DHT22;55008;47.514;19.218;2022-10-17T02:26:55;8.54;92.90
68189;DHT22;55008;47.514;19.218;2022-10-17T02:29:29;8.55;92.85
68189;DHT22;55008;47.514;19.218;2022-10-17T02:32:01;8.55;92.58
68189;DHT22;55008;47.514;19.218;2022-10-17T02:34:36;8.52;92.70
68189;DHT22;55008;47.514;19.218;2022-10-17T02:37:09;8.54;92.79
68189;DHT22;55008;47.514;19.218;2022-10-17T02:39:39;8.48;92.83
68189;DHT22;55008;47.514;19.218;2022-10-17T02:42:11;8.52;92.81
68189;DHT22;55008;47.514;19.218;2022-10-17T02:44:44;8.54;92.46
68189;DHT22;55008;47.514;19.218;2022-10-17T02:47:17;8.54;92.48
68189;DHT22;55008;47.514;19.218;2022-10-17T02:49:52;8.45;92.49
68189;DHT22;55008;47.514;19.218;2022-10-17T02:52:26;8.37;92.40
68189;DHT22;55008;47.514;19.218;2022-10-17T02:55:01;8.27;92.43
68189;DHT22;55008;47.514;19.218;2022-10-17T02:57:35;8.17;92.71
68189;DHT22;55008;47.514;19.218;2022-10-17T03:00:08;8.13;92.90
68189;DHT22;55008;47.514;19.218;2022-10-17T03:02:39;8.11;92.76
68189;DHT22;55008;47.514;19.218;2022-10-17T03:05:11;8.07;92.82
68189;DHT22;55008;47.514;19.218;2022-10-17T03:07:40;8.06;93.61
68189;DHT22;55008;47.514;19.218;2022-10-17T03:10:09;8.10;93.88
68189;DHT22;55008;47.514;19.218;2022-10-17T03:12:40;8.11;93.81
68189;DHT22;55008;47.514;19.218;2022-10-17T03:15:09;8.19;93.82
68189;DHT22;55008;47.514;19.218;2022-10-17T03:17:40;8.23;93.64
68189;DHT22;55008;47.514;19.218;2022-10-17T03:20:10;8.30;93.40
68189;DHT22;55008;47.514;19.218;2022-10-17T03:22:38;8.31;93.11
68189;DHT22;55008;47.514;19.218;2022-10-17T03:25:07;8.29;92.96
68189;DHT22;55008;47.514;19.218;2022-10-17T03:27:36;8.27;92.92
68189;DHT22;55008;47.514;19.218;2022-10-17T03:30:05;8.33;93.02
68189;DHT22;55008;47.514;19.218;2022-10-17T03:32:34;8.44;92.67
68189;DHT22;55008;47.514;19.218;2022-10-17T03:35:03;8.51;92.42
68189;DHT22;55008;47.514;19.218;2022-10-17T03:37:35;8.50;92.40
68189;DHT22;55008;47.514;19.218;2022-10-17T03:40:04;8.58;92.20
68189;DHT22;55008;47.514;19.218;2022-10-17T03:42:33;8.62;91.93
68189;DHT22;55008;47.514;19.218;2022-10-17T03:45:01;8.61;91.89
68189;DHT22;55008;47.514;19.218;2022-10-17T03:47:30;8.54;92.01
68189;DHT22;55008;47.514;19.218;2022-10-17T03:50:01;8.40;91.96
68189;DHT22;55008;47.514;19.218;2022-10-17T03:52:29;8.29;92.39
68189;DHT22;55008;47.514;19.218;2022-10-17T03:55:00;8.23;92.83
68189;DHT22;55008;47.514;19.218;2022-10-17T03:57:28;8.26;93.06
68189;DHT22;55008;47.514;19.218;2022-10-17T03:59:57;8.19;92.88
68189;DHT22;55008;47.514;19.218;2022-10-17T04:02:25;8.07;92.01
68189;DHT22;55008;47.514;19.218;2022-10-17T04:04:54;7.96;92.14
68189;DHT22;55008;47.514;19.218;2022-10-17T04:07:22;7.89;92.31
68189;DHT22;55008;47.514;19.218;2022-10-17T04:09:57;7.81;91.95
68189;DHT22;55008;47.514;19.218;2022-10-17T04:12:27;7.78;92.17
68189;DHT22;55008;47.514;19.218;2022-10-17T04:14:58;7.76;91.92
68189;DHT22;55008;47.514;19.218;2022-10-17T04:17:29;7.62;91.90
68189;DHT22;55008;47.514;19.218;2022-10-17T04:20:07;7.52;92.22
68189;DHT22;55008;47.514;19.218;2022-10-17T04:22:36;7.47;92.57
68189;DHT22;55008;47.514;19.218;2022-10-17T04:25:06;7.47;92.75
68189;DHT22;55008;47.514;19.218;2022-10-17T04:27:36;7.44;93.02
68189;DHT22;55008;47.514;19.218;2022-10-17T04:30:06;7.40;93.64
68189;DHT22;55008;47.514;19.218;2022-10-17T04:32:36;7.40;93.80
68189;DHT22;55008;47.514;19.218;2022-10-17T04:35:05;7.35;93.67
68189;DHT22;55008;47.514;19.218;2022-10-17T04:37:36;7.28;93.55
68189;DHT22;55008;47.514;19.218;2022-10-17T04:40:06;7.27;94.05
68189;DHT22;55008;47.514;19.218;2022-10-17T04:42:36;7.25;93.73
68189;DHT22;55008;47.514;19.218;2022-10-17T04:45:05;7.21;94.09
68189;DHT22;55008;47.514;19.218;2022-10-17T04:47:34;7.24;94.51
68189;DHT22;55008;47.514;19.218;2022-10-17T04:50:03;7.28;94.44
68189;DHT22;55008;47.514;19.218;2022-10-17T04:52:33;7.27;94.66
68189;DHT22;55008;47.514;19.218;2022-10-17T04:55:04;7.24;94.49
68189;DHT22;55008;47.514;19.218;2022-10-17T04:57:33;7.24;94.43
68189;DHT22;55008;47.514;19.218;2022-10-17T05:00:06;7.28;94.38
68189;DHT22;55008;47.514;19.218;2022-10-17T05:02:35;7.18;94.21
68189;DHT22;55008;47.514;19.218;2022-10-17T05:05:07;7.07;94.26
68189;DHT22;55008;47.514;19.218;2022-10-17T05:07:38;7.04;94.76
68189;DHT22;55008;47.514;19.218;2022-10-17T05:10:07;7.03;94.41
68189;DHT22;55008;47.514;19.218;2022-10-17T05:12:36;7.00;94.58
68189;DHT22;55008;47.514;19.218;2022-10-17T05:15:10;7.00;94.80
68189;DHT22;55008;47.514;19.218;2022-10-17T05:17:43;7.04;95.11
68189;DHT22;55008;47.514;19.218;2022-10-17T05:20:13;7.03;94.91
68189;DHT22;55008;47.514;19.218;2022-10-17T05:22:44;7.00;94.83
68189;DHT22;55008;47.514;19.218;2022-10-17T05:25:13;6.94;94.77
68189;DHT22;55008;47.514;19.218;2022-10-17T05:27:41;6.96;94.71
68189;DHT22;55008;47.514;19.218;2022-10-17T05:30:13;7.01;94.67
68189;DHT22;55008;47.514;19.218;2022-10-17T05:32:44;6.99;94.33
68189;DHT22;55008;47.514;19.218;2022-10-17T05:35:16;6.99;94.25
68189;DHT22;55008;47.514;19.218;2022-10-17T05:37:48;6.96;94.34
68189;DHT22;55008;47.514;19.218;2022-10-17T05:40:23;6.97;94.64
68189;DHT22;55008;47.514;19.218;2022-10-17T05:42:52;6.97;94.35
68189;DHT22;55008;47.514;19.218;2022-10-17T05:45:28;6.99;94.82
68189;DHT22;55008;47.514;19.218;2022-10-17T05:48:01;7.03;94.47
68189;DHT22;55008;47.514;19.218;2022-10-17T05:50:29;7.08;94.72
68189;DHT22;55008;47.514;19.218;2022-10-17T05:53:02;7.21;94.72
68189;DHT22;55008;47.514;19.218;2022-10-17T05:55:37;7.36;94.36
68189;DHT22;55008;47.514;19.218;2022-10-17T05:58:08;7.34;93.97
68189;DHT22;55008;47.514;19.218;2022-10-17T06:00:59;7.31;94.01
68189;DHT22;55008;47.514;19.218;2022-10-17T06:03:32;7.36;94.25
68189;DHT22;55008;47.514;19.218;2022-10-17T06:06:10;7.36;94.26
68189;DHT22;55008;47.514;19.218;2022-10-17T06:08:40;7.42;94.55
68189;DHT22;55008;47.514;19.218;2022-10-17T06:11:09;7.47;94.51
68189;DHT22;55008;47.514;19.218;2022-10-17T06:13:41;7.58;94.71
68189;DHT22;55008;47.514;19.218;2022-10-17T06:16:11;7.66;94.46
68189;DHT22;55008;47.514;19.218;2022-10-17T06:18:39;7.76;94.53
68189;DHT22;55008;47.514;19.218;2022-10-17T06:21:09;7.89;94.69
68189;DHT22;55008;47.514;19.218;2022-10-17T06:23:38;8.03;94.81
68189;DHT22;55008;47.514;19.218;2022-10-17T06:26:07;8.19;94.70
68189;DHT22;55008;47.514;19.218;2022-10-17T06:28:36;8.44;94.47
68189;DHT22;55008;47.514;19.218;2022-10-17T06:31:05;8.64;94.17
68189;DHT22;55008;47.514;19.218;2022-10-17T06:33:36;8.82;93.40
68189;DHT22;55008;47.514;19.218;2022-10-17T06:36:06;9.03;92.83
68189;DHT22;55008;47.514;19.218;2022-10-17T06:38:35;9.19;92.39
68189;DHT22;55008;47.514;19.218;2022-10-17T06:41:04;9.33;92.30
68189;DHT22;55008;47.514;19.218;2022-10-17T06:43:34;9.50;91.99
68189;DHT22;55008;47.514;19.218;2022-10-17T06:46:03;9.62;91.27
68189;DHT22;55008;47.514;19.218;2022-10-17T06:48:32;9.79;91.16
68189;DHT22;55008;47.514;19.218;2022-10-17T06:51:04;9.98;90.70
68189;DHT22;55008;47.514;19.218;2022-10-17T06:53:33;10.10;90.17
68189;DHT22;55008;47.514;19.218;2022-10-17T06:56:04;10.30;89.55
68189;DHT22;55008;47.514;19.218;2022-10-17T06:58:36;10.39;90.01
68189;DHT22;55008;47.514;19.218;2022-10-17T07:01:07;10.53;89.46
68189;DHT22;55008;47.514;19.218;2022-10-17T07:03:36;10.60;88.87
68189;DHT22;55008;47.514;19.218;2022-10-17T07:06:06;10.71;88.28
68189;DHT22;55008;47.514;19.218;2022-10-17T07:08:37;10.94;87.54
68189;DHT22;55008;47.514;19.218;2022-10-17T07:11:09;11.07;87.47
68189;DHT22;55008;47.514;19.218;2022-10-17T07:13:37;11.16;87.07
68189;DHT22;55008;47.514;19.218;2022-10-17T07:16:06;11.26;87.16
68189;DHT22;55008;47.514;19.218;2022-10-17T07:18:35;11.36;86.29
68189;DHT22;55008;47.514;19.218;2022-10-17T07:21:04;11.63;86.34
68189;DHT22;55008;47.514;19.218;2022-10-17T07:23:34;11.87;83.76
68189;DHT22;55008;47.514;19.218;2022-10-17T07:26:04;12.04;82.04
68189;DHT22;55008;47.514;19.218;2022-10-17T07:28:34;12.21;81.17
68189;DHT22;55008;47.514;19.218;2022-10-17T07:31:04;12.38;80.82
68189;DHT22;55008;47.514;19.218;2022-10-17T07:33:33;12.44;80.24
68189;DHT22;55008;47.514;19.218;2022-10-17T07:36:04;12.65;79.60
68189;DHT22;55008;47.514;19.218;2022-10-17T07:38:36;12.70;79.41
68189;DHT22;55008;47.514;19.218;2022-10-17T07:41:09;12.83;79.79
68189;DHT22;55008;47.514;19.218;2022-10-17T07:43:37;12.92;79.38
68189;DHT22;55008;47.514;19.218;2022-10-17T07:46:09;12.94;79.38
68189;DHT22;55008;47.514;19.218;2022-10-17T07:48:39;13.00;79.41
68189;DHT22;55008;47.514;19.218;2022-10-17T07:51:08;13.06;77.89
68189;DHT22;55008;47.514;19.218;2022-10-17T07:53:38;13.27;76.51
68189;DHT22;55008;47.514;19.218;2022-10-17T07:56:14;13.48;75.35
68189;DHT22;55008;47.514;19.218;2022-10-17T07:58:46;13.42;78.57
68189;DHT22;55008;47.514;19.218;2022-10-17T08:01:15;13.55;76.77
68189;DHT22;55008;47.514;19.218;2022-10-17T08:03:45;13.68;76.43
68189;DHT22;55008;47.514;19.218;2022-10-17T08:06:15;13.79;75.59
68189;DHT22;55008;47.514;19.218;2022-10-17T08:08:45;13.89;73.64
68189;DHT22;55008;47.514;19.218;2022-10-17T08:11:14;14.06;75.71
68189;DHT22;55008;47.514;19.218;2022-10-17T08:13:43;14.05;75.10
68189;DHT22;55008;47.514;19.218;2022-10-17T08:16:14;14.14;73.96
68189;DHT22;55008;47.514;19.218;2022-10-17T08:18:44;14.28;73.12
68189;DHT22;55008;47.514;19.218;2022-10-17T08:21:13;14.34;74.46
68189;DHT22;55008;47.514;19.218;2022-10-17T08:23:42;14.49;71.58
68189;DHT22;55008;47.514;19.218;2022-10-17T08:26:16;14.58;71.83
68189;DHT22;55008;47.514;19.218;2022-10-17T08:28:46;14.64;72.90
68189;DHT22;55008;47.514;19.218;2022-10-17T08:31:18;14.79;73.50
68189;DHT22;55008;47.514;19.218;2022-10-17T08:33:48;14.95;71.76
68189;DHT22;55008;47.514;19.218;2022-10-17T08:36:20;15.09;69.78
68189;DHT22;55008;47.514;19.218;2022-10-17T08:38:48;15.18;68.44
68189;DHT22;55008;47.514;19.218;2022-10-17T08:41:34;15.22;69.99
68189;DHT22;55008;47.514;19.218;2022-10-17T08:44:13;15.40;70.43
68189;DHT22;55008;47.514;19.218;2022-10-17T08:46:46;15.50;69.00
68189;DHT22;55008;47.514;19.218;2022-10-17T08:49:21;15.54;67.18
68189;DHT22;55008;47.514;19.218;2022-10-17T08:51:58;15.67;67.88
68189;DHT22;55008;47.514;19.218;2022-10-17T08:54:37;15.78;67.38
68189;DHT22;55008;47.514;19.218;2022-10-17T08:57:11;15.91;67.72
68189;DHT22;55008;47.514;19.218;2022-10-17T08:59:43;15.97;67.66
68189;DHT22;55008;47.514;19.218;2022-10-17T09:02:23;16.01;67.06
68189;DHT22;55008;47.514;19.218;2022-10-17T09:05:13;16.01;66.93
68189;DHT22;55008;47.514;19.218;2022-10-17T09:08:03;16.22;66.41
68189;DHT22;55008;47.514;19.218;2022-10-17T09:10:48;16.29;67.53
68189;DHT22;55008;47.514;19.218;2022-10-17T09:13:28;16.39;66.07
68189;DHT22;55008;47.514;19.218;2022-10-17T09:18:59;16.67;65.36
68189;DHT22;55008;47.514;19.218;2022-10-17T09:21:38;16.81;65.60
68189;DHT22;55008;47.514;19.218;2022-10-17T09:24:13;17.06;64.09
68189;DHT22;55008;47.514;19.218;2022-10-17T09:26:45;17.36;63.05
68189;DHT22;55008;47.514;19.218;2022-10-17T09:29:17;17.35;61.61
68189;DHT22;55008;47.514;19.218;2022-10-17T09:31:52;17.43;62.15
68189;DHT22;55008;47.514;19.218;2022-10-17T09:34:27;17.53;61.31
68189;DHT22;55008;47.514;19.218;2022-10-17T09:36:58;17.49;61.52
68189;DHT22;55008;47.514;19.218;2022-10-17T09:39:30;17.50;61.74
68189;DHT22;55008;47.514;19.218;2022-10-17T09:42:00;17.65;62.88
68189;DHT22;55008;47.514;19.218;2022-10-17T09:44:33;17.73;60.85
68189;DHT22;55008;47.514;19.218;2022-10-17T09:47:11;17.83;60.17
68189;DHT22;55008;47.514;19.218;2022-10-17T09:49:44;17.96;58.07
68189;DHT22;55008;47.514;19.218;2022-10-17T09:52:15;18.13;59.04
68189;DHT22;55008;47.514;19.218;2022-10-17T09:54:46;18.24;56.68
68189;DHT22;55008;47.514;19.218;2022-10-17T09:57:20;18.35;55.66
68189;DHT22;55008;47.514;19.218;2022-10-17T09:59:57;18.44;57.30
68189;DHT22;55008;47.514;19.218;2022-10-17T10:02:28;18.40;56.78
68189;DHT22;55008;47.514;19.218;2022-10-17T10:05:00;18.45;57.52
68189;DHT22;55008;47.514;19.218;2022-10-17T10:07:35;18.58;56.62
68189;DHT22;55008;47.514;19.218;2022-10-17T10:10:05;18.80;57.07
68189;DHT22;55008;47.514;19.218;2022-10-17T10:12:35;18.80;57.23
68189;DHT22;55008;47.514;19.218;2022-10-17T10:15:38;18.95;55.72
68189;DHT22;55008;47.514;19.218;2022-10-17T10:18:31;19.10;55.83
68189;DHT22;55008;47.514;19.218;2022-10-17T10:21:11;19.04;55.29
68189;DHT22;55008;47.514;19.218;2022-10-17T10:23:41;19.06;55.93
68189;DHT22;55008;47.514;19.218;2022-10-17T10:26:22;19.21;54.97
68189;DHT22;55008;47.514;19.218;2022-10-17T10:28:54;19.30;55.18
68189;DHT22;55008;47.514;19.218;2022-10-17T10:31:31;19.41;55.29
68189;DHT22;55008;47.514;19.218;2022-10-17T10:34:02;19.48;55.62
68189;DHT22;55008;47.514;19.218;2022-10-17T10:36:54;19.48;54.64
68189;DHT22;55008;47.514;19.218;2022-10-17T10:39:39;19.40;56.85
68189;DHT22;55008;47.514;19.218;2022-10-17T10:42:19;19.32;54.99
68189;DHT22;55008;47.514;19.218;2022-10-17T10:44:48;19.40;56.09
68189;DHT22;55008;47.514;19.218;2022-10-17T10:47:27;19.40;57.75
68189;DHT22;55008;47.514;19.218;2022-10-17T10:50:17;19.43;56.28
68189;DHT22;55008;47.514;19.218;2022-10-17T10:52:54;19.50;57.58
68189;DHT22;55008;47.514;19.218;2022-10-17T10:55:28;19.74;57.03
68189;DHT22;55008;47.514;19.218;2022-10-17T10:58:03;19.71;55.94
68189;DHT22;55008;47.514;19.218;2022-10-17T11:00:33;19.89;56.54
68189;DHT22;55008;47.514;19.218;2022-10-17T11:03:11;19.92;54.38
68189;DHT22;55008;47.514;19.218;2022-10-17T11:05:44;19.90;54.28
68189;DHT22;55008;47.514;19.218;2022-10-17T11:08:20;19.97;54.87
68189;DHT22;55008;47.514;19.218;2022-10-17T11:11:15;20.06;54.90
68189;DHT22;55008;47.514;19.218;2022-10-17T11:13:49;20.19;55.22
68189;DHT22;55008;47.514;19.218;2022-10-17T11:16:29;20.26;53.64
68189;DHT22;55008;47.514;19.218;2022-10-17T11:19:06;20.36;53.62
68189;DHT22;55008;47.514;19.218;2022-10-17T11:21:40;20.47;53.08
68189;DHT22;55008;47.514;19.218;2022-10-17T11:24:17;20.47;53.12
68189;DHT22;55008;47.514;19.218;2022-10-17T11:26:52;20.64;54.22
68189;DHT22;55008;47.514;19.218;2022-10-17T11:29:27;20.75;53.26
68189;DHT22;55008;47.514;19.218;2022-10-17T11:32:05;20.74;54.36
68189;DHT22;55008;47.514;19.218;2022-10-17T11:34:40;20.78;53.10
68189;DHT22;55008;47.514;19.218;2022-10-17T11:37:15;20.90;53.40
68189;DHT22;55008;47.514;19.218;2022-10-17T11:39:50;20.85;53.61
68189;DHT22;55008;47.514;19.218;2022-10-17T11:42:24;20.92;52.53
68189;DHT22;55008;47.514;19.218;2022-10-17T11:44:57;21.09;52.25
68189;DHT22;55008;47.514;19.218;2022-10-17T11:47:33;21.21;51.17
68189;DHT22;55008;47.514;19.218;2022-10-17T11:50:18;21.40;51.68
68189;DHT22;55008;47.514;19.218;2022-10-17T11:53:10;21.60;51.26
68189;DHT22;55008;47.514;19.218;2022-10-17T11:55:40;21.54;51.71
68189;DHT22;55008;47.514;19.218;2022-10-17T11:58:34;21.59;50.71
68189;DHT22;55008;47.514;19.218;2022-10-17T12:01:14;21.66;51.78
68189;DHT22;55008;47.514;19.218;2022-10-17T12:03:57;21.73;51.53
68189;DHT22;55008;47.514;19.218;2022-10-17T12:06:46;21.71;49.23
68189;DHT22;55008;47.514;19.218;2022-10-17T12:09:24;21.84;48.49
68189;DHT22;55008;47.514;19.218;2022-10-17T12:11:55;21.93;48.01
68189;DHT22;55008;47.514;19.218;2022-10-17T12:14:38;22.02;48.45
68189;DHT22;55008;47.514;19.218;2022-10-17T12:17:22;22.17;46.35
68189;DHT22;55008;47.514;19.218;2022-10-17T12:19:53;22.27;45.59
68189;DHT22;55008;47.514;19.218;2022-10-17T12:22:23;22.17;45.20
68189;DHT22;55008;47.514;19.218;2022-10-17T12:24:55;22.11;44.49
68189;DHT22;55008;47.514;19.218;2022-10-17T12:27:33;22.08;44.49
68189;DHT22;55008;47.514;19.218;2022-10-17T12:30:22;22.04;44.89
68189;DHT22;55008;47.514;19.218;2022-10-17T12:33:05;22.28;45.42
68189;DHT22;55008;47.514;19.218;2022-10-17T12:35:41;22.35;45.34
68189;DHT22;55008;47.514;19.218;2022-10-17T12:38:28;22.44;44.35
68189;DHT22;55008;47.514;19.218;2022-10-17T12:41:03;22.41;43.44
68189;DHT22;55008;47.514;19.218;2022-10-17T12:43:55;22.45;44.57
68189;DHT22;55008;47.514;19.218;2022-10-17T12:46:48;22.49;42.24
68189;DHT22;55008;47.514;19.218;2022-10-17T12:52:20;22.86;42.05
68189;DHT22;55008;47.514;19.218;2022-10-17T12:55:06;22.75;43.40
68189;DHT22;55008;47.514;19.218;2022-10-17T12:57:49;22.84;41.93
68189;DHT22;55008;47.514;19.218;2022-10-17T13:00:24;22.93;41.99
68189;DHT22;55008;47.514;19.218;2022-10-17T13:03:02;22.57;43.81
68189;DHT22;55008;47.514;19.218;2022-10-17T13:05:33;22.65;43.18
68189;DHT22;55008;47.514;19.218;2022-10-17T13:08:04;22.39;42.81
68189;DHT22;55008;47.514;19.218;2022-10-17T13:10:37;22.14;43.54
68189;DHT22;55008;47.514;19.218;2022-10-17T13:13:14;21.86;44.23
68189;DHT22;55008;47.514;19.218;2022-10-17T13:15:47;21.61;44.17
68189;DHT22;55008;47.514;19.218;2022-10-17T13:18:19;21.36;45.01
68189;DHT22;55008;47.514;19.218;2022-10-17T13:20:56;21.19;46.51
68189;DHT22;55008;47.514;19.218;2022-10-17T13:23:28;21.06;46.67
68189;DHT22;55008;47.514;19.218;2022-10-17T13:26:13;20.87;47.40
68189;DHT22;55008;47.514;19.218;2022-10-17T13:28:42;20.74;47.27
68189;DHT22;55008;47.514;19.218;2022-10-17T13:31:27;20.57;49.03
68189;DHT22;55008;47.514;19.218;2022-10-17T13:33:58;20.51;48.33
68189;DHT22;55008;47.514;19.218;2022-10-17T13:36:29;20.43;49.07
68189;DHT22;55008;47.514;19.218;2022-10-17T13:38:59;20.30;48.87
68189;DHT22;55008;47.514;19.218;2022-10-17T13:41:39;20.23;50.01
68189;DHT22;55008;47.514;19.218;2022-10-17T13:44:11;20.22;49.45
68189;DHT22;55008;47.514;19.218;2022-10-17T13:46:40;20.16;49.71
68189;DHT22;55008;47.514;19.218;2022-10-17T13:49:14;20.08;51.66
68189;DHT22;55008;47.514;19.218;2022-10-17T13:51:53;20.02;50.51
68189;DHT22;55008;47.514;19.218;2022-10-17T13:54:32;20.02;49.72
68189;DHT22;55008;47.514;19.218;2022-10-17T13:57:03;19.93;51.89
68189;DHT22;55008;47.514;19.218;2022-10-17T13:59:36;19.89;51.01
68189;DHT22;55008;47.514;19.218;2022-10-17T14:02:13;19.88;52.19
68189;DHT22;55008;47.514;19.218;2022-10-17T14:04:41;19.90;51.33
68189;DHT22;55008;47.514;19.218;2022-10-17T14:07:39;19.99;51.61
68189;DHT22;55008;47.514;19.218;2022-10-17T14:10:30;19.90;53.07
68189;DHT22;55008;47.514;19.218;2022-10-17T14:13:02;19.85;52.42
68189;DHT22;55008;47.514;19.218;2022-10-17T14:15:33;19.81;53.01
68189;DHT22;55008;47.514;19.218;2022-10-17T14:18:04;19.77;53.75
68189;DHT22;55008;47.514;19.218;2022-10-17T14:20:34;19.74;53.39
68189;DHT22;55008;47.514;19.218;2022-10-17T14:23:32;19.74;53.61
68189;DHT22;55008;47.514;19.218;2022-10-17T14:26:12;19.69;53.53
68189;DHT22;55008;47.514;19.218;2022-10-17T14:28:44;19.65;53.49
68189;DHT22;55008;47.514;19.218;2022-10-17T14:31:23;19.57;53.54
68189;DHT22;55008;47.514;19.218;2022-10-17T14:33:53;19.57;54.47
68189;DHT22;55008;47.514;19.218;2022-10-17T14:36:30;19.54;53.73
68189;DHT22;55008;47.514;19.218;2022-10-17T14:38:59;19.48;54.93
68189;DHT22;55008;47.514;19.218;2022-10-17T14:41:30;19.51;54.06
68189;DHT22;55008;47.514;19.218;2022-10-17T14:44:24;19.50;54.12
68189;DHT22;55008;47.514;19.218;2022-10-17T14:46:58;19.40;54.37
68189;DHT22;55008;47.514;19.218;2022-10-17T14:49:38;19.31;55.29
68189;DHT22;55008;47.514;19.218;2022-10-17T14:52:25;19.17;56.62
68189;DHT22;55008;47.514;19.218;2022-10-17T14:54:55;19.09;56.63
68189;DHT22;55008;47.514;19.218;2022-10-17T14:57:27;19.02;55.65
68189;DHT22;55008;47.514;19.218;2022-10-17T14:59:57;18.93;55.61
68189;DHT22;55008;47.514;19.218;2022-10-17T15:02:27;18.85;55.88
68189;DHT22;55008;47.514;19.218;2022-10-17T15:04:56;18.76;55.85
68189;DHT22;55008;47.514;19.218;2022-10-17T15:07:24;18.65;56.02
68189;DHT22;55008;47.514;19.218;2022-10-17T15:09:53;18.65;55.75
68189;DHT22;55008;47.514;19.218;2022-10-17T15:12:23;18.55;56.63
68189;DHT22;55008;47.514;19.218;2022-10-17T15:14:52;18.49;57.90
68189;DHT22;55008;47.514;19.218;2022-10-17T15:17:25;18.45;59.25
68189;DHT22;55008;47.514;19.218;2022-10-17T15:19:56;18.32;58.48
68189;DHT22;55008;47.514;19.218;2022-10-17T15:22:25;18.18;59.59
68189;DHT22;55008;47.514;19.218;2022-10-17T15:24:56;18.08;59.76
68189;DHT22;55008;47.514;19.218;2022-10-17T15:27:24;17.91;59.72
68189;DHT22;55008;47.514;19.218;2022-10-17T15:29:53;17.84;59.28
68189;DHT22;55008;47.514;19.218;2022-10-17T15:32:23;17.79;59.39
68189;DHT22;55008;47.514;19.218;2022-10-17T15:34:51;17.67;60.06
68189;DHT22;55008;47.514;19.218;2022-10-17T15:37:23;17.59;60.54
68189;DHT22;55008;47.514;19.218;2022-10-17T15:39:54;17.52;60.35
68189;DHT22;55008;47.514;19.218;2022-10-17T15:42:27;17.46;61.14
68189;DHT22;55008;47.514;19.218;2022-10-17T15:44:56;17.36;60.81
68189;DHT22;55008;47.514;19.218;2022-10-17T15:47:28;17.25;61.66
68189;DHT22;55008;47.514;19.218;2022-10-17T15:50:01;17.17;62.02
68189;DHT22;55008;47.514;19.218;2022-10-17T15:52:30;17.12;61.75
68189;DHT22;55008;47.514;19.218;2022-10-17T15:55:01;17.03;62.67
68189;DHT22;55008;47.514;19.218;2022-10-17T15:57:35;16.84;64.07
68189;DHT22;55008;47.514;19.218;2022-10-17T16:00:06;16.71;63.76
68189;DHT22;55008;47.514;19.218;2022-10-17T16:02:44;16.63;63.52
68189;DHT22;55008;47.514;19.218;2022-10-17T16:05:14;16.53;64.05
68189;DHT22;55008;47.514;19.218;2022-10-17T16:07:44;16.45;64.75
68189;DHT22;55008;47.514;19.218;2022-10-17T16:10:15;16.33;64.43